createdAt,value
2019-03-21T00:00:40.492Z,99.99
2019-03-21T00:01:40.510Z,99.99
2019-03-21T00:02:40.518Z,99.99
2019-03-21T00:03:40.531Z,99.99
2019-03-21T00:04:40.549Z,99.99
2019-03-21T00:05:40.588Z,99.99
2019-03-21T00:06:40.593Z,99.99
2019-03-21T00:07:40.622Z,99.99
2019-03-21T00:08:40.725Z,99.99
2019-03-21T00:09:40.666Z,99.99
2019-03-21T00:10:40.662Z,99.99
2019-03-21T00:11:55.345Z,99.99
2019-03-21T00:12:40.713Z,99.99
2019-03-21T00:13:40.735Z,99.99
2019-03-21T00:14:40.758Z,99.99
2019-03-21T00:15:40.550Z,99.99
2019-03-21T00:16:40.787Z,99.99
2019-03-21T00:17:40.793Z,99.99
2019-03-21T00:18:40.829Z,99.99
2019-03-21T00:19:40.846Z,99.99
2019-03-21T00:20:40.867Z,99.99
2019-03-21T00:21:40.884Z,99.99
2019-03-21T00:22:40.904Z,99.99
2019-03-21T00:23:40.912Z,99.99
2019-03-21T00:24:40.945Z,99.99
2019-03-21T00:25:40.944Z,99.99
2019-03-21T00:26:40.977Z,99.99
2019-03-21T00:27:40.982Z,99.99
2019-03-21T00:28:41.017Z,99.99
2019-03-21T00:29:41.022Z,99.99
2019-03-21T00:30:41.056Z,99.99
2019-03-21T00:31:41.068Z,99.99
2019-03-21T00:32:41.093Z,99.99
2019-03-21T00:33:41.098Z,99.99
2019-03-21T00:34:41.117Z,99.99
2019-03-21T00:35:41.213Z,99.99
2019-03-21T00:36:41.169Z,99.99
2019-03-21T00:37:41.169Z,99.99
2019-03-21T00:38:41.204Z,99.99
2019-03-21T00:39:41.204Z,99.99
2019-03-21T00:40:43.686Z,99.99
2019-03-21T00:41:41.243Z,99.99
2019-03-21T00:42:41.277Z,99.99
2019-03-21T00:43:55.944Z,99.99
2019-03-21T00:44:41.401Z,99.99
2019-03-21T00:45:41.330Z,99.99
2019-03-21T00:46:41.353Z,99.99
2019-03-21T00:47:41.372Z,99.99
2019-03-21T00:48:41.388Z,99.99
2019-03-21T00:49:41.408Z,99.99
2019-03-21T00:50:41.414Z,99.99
2019-03-21T00:51:41.465Z,99.99
2019-03-21T00:52:41.464Z,99.99
2019-03-21T00:53:41.466Z,99.99
2019-03-21T00:54:41.491Z,99.99
2019-03-21T00:55:41.517Z,99.99
2019-03-21T00:56:41.529Z,99.99
2019-03-21T00:58:41.595Z,99.99
2019-03-21T00:59:56.246Z,99.99
2019-03-21T01:00:41.613Z,99.99
2019-03-21T01:01:41.731Z,99.99
2019-03-21T01:02:41.694Z,99.99
2019-03-21T01:03:41.669Z,99.99
2019-03-21T01:04:41.689Z,99.99
2019-03-21T01:05:41.706Z,99.99
2019-03-21T01:06:41.726Z,99.99
2019-03-21T01:07:41.726Z,99.99
2019-03-21T01:08:41.763Z,99.99
2019-03-21T01:09:41.764Z,99.99
2019-03-21T01:10:41.800Z,99.99
2019-03-21T01:11:41.816Z,99.99
2019-03-21T01:12:41.841Z,99.99
2019-03-21T01:13:41.839Z,99.99
2019-03-21T01:14:41.861Z,99.99
2019-03-21T01:15:56.543Z,99.99
2019-03-21T01:16:41.899Z,99.99
2019-03-21T01:17:41.914Z,99.99
2019-03-21T01:18:41.949Z,99.99
2019-03-21T01:19:41.970Z,99.99
2019-03-21T01:20:41.987Z,99.99
2019-03-21T01:21:42.001Z,99.99
2019-03-21T01:22:42.024Z,99.99
2019-03-21T01:23:42.030Z,99.99
2019-03-21T01:24:42.043Z,99.99
2019-03-21T01:25:42.074Z,99.99
2019-03-21T01:26:42.098Z,99.99
2019-03-21T01:27:42.117Z,99.99
2019-03-21T01:28:42.124Z,99.99
2019-03-21T01:29:42.155Z,99.99
2019-03-21T01:30:42.225Z,99.99
2019-03-21T01:31:56.843Z,99.99
2019-03-21T01:32:42.191Z,99.99
2019-03-21T01:33:42.227Z,99.99
2019-03-21T01:34:42.247Z,99.99
2019-03-21T01:35:42.255Z,99.99
2019-03-21T01:36:42.279Z,99.99
2019-03-21T01:37:42.285Z,99.99
2019-03-21T01:38:42.320Z,99.99
2019-03-21T01:39:42.326Z,99.99
2019-03-21T01:40:42.360Z,99.99
2019-03-21T01:41:42.359Z,99.99
2019-03-21T01:42:42.396Z,99.99
2019-03-21T01:43:42.409Z,99.99
2019-03-21T01:44:43.816Z,99.99
2019-03-21T01:45:42.446Z,99.99
2019-03-21T01:46:57.118Z,99.99
2019-03-21T01:47:42.479Z,99.99
2019-03-21T01:48:42.508Z,99.99
2019-03-21T01:49:42.509Z,99.99
2019-03-21T01:50:42.545Z,99.99
2019-03-21T01:51:42.562Z,99.99
2019-03-21T01:52:42.569Z,99.99
2019-03-21T01:53:42.598Z,99.99
2019-03-21T01:54:42.602Z,99.99
2019-03-21T01:55:42.637Z,99.99
2019-03-21T01:56:42.644Z,99.99
2019-03-21T01:57:42.675Z,99.99
2019-03-21T01:58:42.690Z,99.99
2019-03-21T01:59:42.711Z,99.99
2019-03-21T02:00:42.716Z,99.99
2019-03-21T02:01:42.743Z,99.99
2019-03-21T02:02:42.764Z,99.99
2019-03-21T02:03:42.792Z,99.99
2019-03-21T02:04:42.805Z,99.99
2019-03-21T02:05:42.812Z,99.99
2019-03-21T02:06:42.839Z,99.99
2019-03-21T02:07:42.844Z,99.99
2019-03-21T02:08:42.880Z,99.99
2019-03-21T02:09:42.882Z,99.99
2019-03-21T02:10:42.919Z,99.99
2019-03-21T02:11:42.923Z,99.99
2019-03-21T02:12:42.945Z,99.99
2019-03-21T02:13:42.975Z,99.99
2019-03-21T02:14:54.147Z,99.99
2019-03-21T02:15:43.307Z,99.99
2019-03-21T02:16:43.013Z,99.99
2019-03-21T02:17:43.031Z,99.99
2019-03-21T02:18:57.718Z,99.99
2019-03-21T02:19:43.067Z,99.99
2019-03-21T02:20:43.104Z,99.99
2019-03-21T02:21:43.105Z,99.99
2019-03-21T02:22:43.141Z,99.99
2019-03-21T02:23:43.144Z,99.99
2019-03-21T02:24:43.174Z,99.99
2019-03-21T02:25:43.197Z,99.99
2019-03-21T02:26:43.211Z,99.99
2019-03-21T02:27:43.218Z,99.99
2019-03-21T02:28:43.251Z,99.99
2019-03-21T02:29:43.263Z,99.99
2019-03-21T02:30:43.295Z,99.99
2019-03-21T02:31:43.294Z,99.99
2019-03-21T02:33:43.335Z,99.99
2019-03-21T02:34:58.011Z,99.99
2019-03-21T02:35:43.393Z,99.99
2019-03-21T02:36:43.391Z,99.99
2019-03-21T02:37:43.404Z,99.99
2019-03-21T02:38:43.439Z,99.99
2019-03-21T02:39:43.200Z,99.99
2019-03-21T02:40:43.475Z,99.99
2019-03-21T02:41:43.525Z,99.99
2019-03-21T02:42:43.502Z,99.99
2019-03-21T02:43:43.551Z,99.99
2019-03-21T02:45:43.575Z,99.99
2019-03-21T02:46:43.625Z,99.99
2019-03-21T02:47:43.607Z,99.99
2019-03-21T02:48:43.621Z,99.99
2019-03-21T02:49:43.647Z,99.99
2019-03-21T02:50:58.311Z,99.99
2019-03-21T02:51:43.675Z,99.99
2019-03-21T02:52:43.702Z,99.99
2019-03-21T02:53:43.708Z,99.99
2019-03-21T02:54:43.740Z,99.99
2019-03-21T02:55:43.739Z,99.99
2019-03-21T02:56:43.825Z,99.99
2019-03-21T02:57:43.775Z,99.99
2019-03-21T02:58:43.808Z,99.99
2019-03-21T02:59:43.819Z,99.99
2019-03-21T03:00:43.855Z,99.99
2019-03-21T03:01:43.869Z,99.99
2019-03-21T03:02:43.882Z,99.99
2019-03-21T03:04:43.913Z,99.99
2019-03-21T03:05:43.926Z,99.99
2019-03-21T03:06:59.756Z,99.99
2019-03-21T03:07:43.973Z,99.99
2019-03-21T03:08:43.982Z,99.99
2019-03-21T03:09:44.019Z,99.99
2019-03-21T03:10:44.040Z,99.99
2019-03-21T03:11:44.060Z,99.99
2019-03-21T03:12:44.055Z,99.99
2019-03-21T03:13:44.113Z,99.99
2019-03-21T03:14:44.093Z,99.99
2019-03-21T03:15:44.136Z,99.99
2019-03-21T03:16:44.145Z,99.99
2019-03-21T03:17:44.163Z,99.99
2019-03-21T03:18:44.188Z,99.99
2019-03-21T03:19:44.238Z,99.99
2019-03-21T03:20:44.223Z,99.99
2019-03-21T03:21:58.986Z,99.99
2019-03-21T03:22:44.264Z,99.99
2019-03-21T03:23:44.259Z,99.99
2019-03-21T03:24:44.297Z,99.99
2019-03-21T03:25:44.315Z,99.99
2019-03-21T03:26:44.339Z,99.99
2019-03-21T03:27:44.333Z,99.99
2019-03-21T03:28:44.358Z,99.99
2019-03-21T03:29:44.391Z,99.99
2019-03-21T03:30:44.421Z,99.99
2019-03-21T03:31:44.422Z,99.99
2019-03-21T03:32:44.448Z,99.99
2019-03-21T03:33:44.456Z,99.99
2019-03-21T03:34:44.513Z,99.99
2019-03-21T03:35:44.490Z,99.99
2019-03-21T03:36:44.515Z,99.99
2019-03-21T03:37:44.620Z,99.99
2019-03-21T03:38:44.542Z,99.99
2019-03-21T03:39:44.574Z,99.99
2019-03-21T03:40:44.584Z,99.99
2019-03-21T03:41:44.612Z,99.99
2019-03-21T03:42:44.618Z,99.99
2019-03-21T03:43:44.651Z,99.99
2019-03-21T03:44:44.653Z,99.99
2019-03-21T03:46:44.700Z,99.99
2019-03-21T03:47:44.750Z,99.99
2019-03-21T03:48:44.757Z,99.99
2019-03-21T03:49:44.744Z,99.99
2019-03-21T03:50:44.777Z,99.99
2019-03-21T03:51:44.781Z,99.99
2019-03-21T03:53:59.479Z,99.99
2019-03-21T03:54:44.863Z,99.99
2019-03-21T03:55:44.871Z,99.99
2019-03-21T03:56:44.876Z,99.99
2019-03-21T03:57:44.653Z,99.99
2019-03-21T03:58:44.927Z,99.99
2019-03-21T03:59:44.937Z,99.99
2019-03-21T04:00:44.977Z,99.99
2019-03-21T04:01:44.974Z,99.99
2019-03-21T04:02:44.994Z,99.99
2019-03-21T04:03:45.007Z,99.99
2019-03-21T04:04:45.039Z,99.99
2019-03-21T04:05:45.062Z,99.99
2019-03-21T04:06:45.065Z,99.99
2019-03-21T04:07:45.094Z,99.99
2019-03-21T04:08:45.111Z,99.99
2019-03-21T04:09:59.781Z,99.99
2019-03-21T04:10:45.131Z,99.99
2019-03-21T04:11:45.179Z,99.99
2019-03-21T04:12:45.192Z,99.99
2019-03-21T04:13:45.192Z,99.99
2019-03-21T04:14:45.211Z,99.99
2019-03-21T04:15:55.463Z,99.99
2019-03-21T04:16:45.263Z,99.99
2019-03-21T04:17:45.278Z,99.99
2019-03-21T04:18:45.313Z,99.99
2019-03-21T04:19:45.324Z,99.99
2019-03-21T04:20:45.338Z,99.99
2019-03-21T04:22:45.360Z,99.99
2019-03-21T04:23:45.400Z,99.99
2019-03-21T04:24:45.394Z,99.99
2019-03-21T04:26:00.080Z,99.99
2019-03-21T04:26:45.439Z,99.99
2019-03-21T04:27:45.462Z,99.99
2019-03-21T04:28:45.496Z,99.99
2019-03-21T04:29:45.504Z,99.99
2019-03-21T04:30:45.521Z,99.99
2019-03-21T04:31:45.566Z,99.99
2019-03-21T04:32:45.544Z,99.99
2019-03-21T04:33:45.586Z,99.99
2019-03-21T04:35:45.620Z,99.99
2019-03-21T04:36:45.634Z,99.99
2019-03-21T04:38:45.669Z,99.99
2019-03-21T04:39:45.673Z,99.99
2019-03-21T04:40:45.695Z,99.99
2019-03-21T04:42:00.371Z,99.99
2019-03-21T04:42:45.795Z,99.99
2019-03-21T04:43:45.767Z,99.99
2019-03-21T04:44:46.949Z,99.99
2019-03-21T04:45:45.795Z,99.99
2019-03-21T04:46:45.800Z,99.99
2019-03-21T04:48:45.895Z,99.99
2019-03-21T04:49:45.875Z,99.99
2019-03-21T04:50:45.894Z,99.99
2019-03-21T04:51:45.898Z,99.99
2019-03-21T04:52:45.913Z,99.99
2019-03-21T04:53:46.027Z,99.99
2019-03-21T04:54:45.950Z,99.99
2019-03-21T04:55:45.986Z,99.99
2019-03-21T04:57:00.652Z,99.99
2019-03-21T04:57:46.026Z,99.99
2019-03-21T04:58:46.028Z,99.99
2019-03-21T04:59:46.062Z,99.99
2019-03-21T05:00:46.086Z,99.99
2019-03-21T05:01:46.099Z,99.99
2019-03-21T05:02:46.099Z,99.99
2019-03-21T05:03:46.120Z,99.99
2019-03-21T05:04:46.153Z,99.99
2019-03-21T05:05:46.163Z,99.99
2019-03-21T05:06:46.192Z,99.99
2019-03-21T05:07:46.193Z,99.99
2019-03-21T05:08:46.231Z,99.99
2019-03-21T05:09:46.231Z,99.99
2019-03-21T05:10:46.249Z,99.99
2019-03-21T05:11:46.281Z,99.99
2019-03-21T05:12:46.313Z,99.99
2019-03-21T05:13:46.324Z,99.99
2019-03-21T05:14:46.322Z,99.99
2019-03-21T05:15:46.358Z,99.99
2019-03-21T05:16:46.358Z,99.99
2019-03-21T05:17:46.403Z,99.99
2019-03-21T05:18:46.399Z,99.99
2019-03-21T05:19:46.434Z,99.99
2019-03-21T05:20:46.488Z,99.99
2019-03-21T05:21:46.464Z,99.99
2019-03-21T05:22:46.536Z,99.99
2019-03-21T05:23:46.509Z,99.99
2019-03-21T05:25:46.544Z,99.99
2019-03-21T05:26:46.555Z,99.99
2019-03-21T05:29:01.250Z,99.99
2019-03-21T05:29:46.359Z,99.99
2019-03-21T05:30:46.637Z,99.99
2019-03-21T05:31:46.637Z,99.99
2019-03-21T05:32:46.674Z,99.99
2019-03-21T05:34:46.695Z,99.99
2019-03-21T05:35:46.727Z,99.99
2019-03-21T05:36:46.748Z,99.99
2019-03-21T05:37:46.767Z,99.99
2019-03-21T05:38:46.766Z,99.99
2019-03-21T05:39:46.808Z,99.99
2019-03-21T05:41:46.829Z,99.99
2019-03-21T05:42:46.843Z,99.99
2019-03-21T05:43:46.880Z,99.99
2019-03-21T05:45:01.549Z,99.99
2019-03-21T05:45:46.899Z,99.99
2019-03-21T05:46:46.930Z,99.99
2019-03-21T05:47:46.958Z,99.99
2019-03-21T05:48:46.958Z,99.99
2019-03-21T05:49:46.991Z,99.99
2019-03-21T05:50:46.995Z,99.99
2019-03-21T05:51:47.014Z,99.99
2019-03-21T05:52:47.042Z,99.99
2019-03-21T05:53:47.052Z,99.99
2019-03-21T05:54:47.099Z,99.99
2019-03-21T05:55:47.085Z,99.99
2019-03-21T05:56:47.120Z,99.99
2019-03-21T05:57:47.129Z,99.99
2019-03-21T05:58:47.163Z,99.99
2019-03-21T05:59:47.162Z,99.99
2019-03-21T06:01:01.848Z,99.99
2019-03-21T06:01:47.297Z,99.99
2019-03-21T06:02:47.234Z,99.99
2019-03-21T06:03:47.234Z,99.99
2019-03-21T06:04:47.272Z,99.99
2019-03-21T06:05:47.271Z,99.99
2019-03-21T06:06:47.310Z,99.99
2019-03-21T06:07:47.315Z,99.99
2019-03-21T06:08:47.326Z,99.99
2019-03-21T06:09:47.364Z,99.99
2019-03-21T06:10:47.382Z,99.99
2019-03-21T06:11:47.400Z,99.99
2019-03-21T06:12:47.414Z,99.99
2019-03-21T06:13:47.536Z,99.99
2019-03-21T06:14:47.456Z,99.99
2019-03-21T06:15:47.458Z,99.99
2019-03-21T06:17:02.147Z,99.99
2019-03-21T06:17:47.496Z,99.99
2019-03-21T06:18:47.514Z,99.99
2019-03-21T06:19:47.548Z,99.99
2019-03-21T06:20:47.570Z,99.99
2019-03-21T06:21:47.590Z,99.99
2019-03-21T06:22:47.595Z,99.99
2019-03-21T06:23:47.629Z,99.99
2019-03-21T06:24:47.635Z,99.99
2019-03-21T06:25:47.703Z,99.99
2019-03-21T06:26:50.147Z,99.99
2019-03-21T06:27:47.700Z,99.99
2019-03-21T06:28:47.716Z,99.99
2019-03-21T06:29:47.727Z,99.99
2019-03-21T06:32:02.425Z,99.99
2019-03-21T06:32:47.796Z,99.99
2019-03-21T06:33:47.798Z,99.99
2019-03-21T06:34:47.833Z,99.99
2019-03-21T06:35:47.848Z,99.99
2019-03-21T06:36:47.871Z,99.99
2019-03-21T06:37:47.871Z,99.99
2019-03-21T06:38:47.892Z,99.99
2019-03-21T06:39:47.936Z,99.99
2019-03-21T06:40:47.946Z,99.99
2019-03-21T06:41:47.946Z,99.99
2019-03-21T06:42:47.987Z,99.99
2019-03-21T06:43:47.996Z,99.99
2019-03-21T06:44:48.021Z,99.99
2019-03-21T06:45:50.655Z,99.99
2019-03-21T06:46:52.235Z,99.99
2019-03-21T06:47:48.061Z,99.85
2019-03-21T06:48:48.097Z,99.99
2019-03-21T06:49:49.087Z,99.99
2019-03-21T06:50:48.139Z,99.99
2019-03-21T06:51:48.149Z,99.99
2019-03-21T06:52:48.176Z,99.95
2019-03-21T06:53:48.176Z,99.66
2019-03-21T06:54:48.193Z,99.75
2019-03-21T06:55:48.229Z,99.99
2019-03-21T06:56:48.236Z,99.56
2019-03-21T06:57:48.271Z,99.66
2019-03-21T06:58:48.272Z,99.66
2019-03-21T07:00:48.307Z,98.99
2019-03-21T07:01:48.331Z,99.18
2019-03-21T07:02:48.343Z,99.27
2019-03-21T07:04:07.218Z,98.61
2019-03-21T07:04:48.401Z,98.8
2019-03-21T07:05:48.401Z,98.8
2019-03-21T07:06:48.434Z,98.13
2019-03-21T07:07:48.450Z,98.22
2019-03-21T07:08:48.457Z,98.8
2019-03-21T07:09:48.497Z,98.9
2019-03-21T07:10:48.497Z,98.61
2019-03-21T07:11:48.532Z,98.8
2019-03-21T07:12:48.541Z,98.8
2019-03-21T07:13:48.569Z,98.13
2019-03-21T07:14:48.589Z,98.13
2019-03-21T07:16:59.721Z,98.61
2019-03-21T07:17:48.629Z,98.22
2019-03-21T07:18:48.666Z,98.22
2019-03-21T07:20:03.333Z,97.94
2019-03-21T07:20:48.706Z,98.03
2019-03-21T07:21:48.722Z,97.94
2019-03-21T07:22:48.748Z,97.94
2019-03-21T07:23:48.756Z,97.85
2019-03-21T07:24:48.762Z,97.85
2019-03-21T07:25:48.802Z,97.56
2019-03-21T07:26:48.800Z,97.56
2019-03-21T07:27:48.838Z,97.56
2019-03-21T07:28:48.838Z,97.94
2019-03-21T07:29:48.876Z,98.03
2019-03-21T07:30:48.876Z,97.85
2019-03-21T07:31:48.932Z,97.94
2019-03-21T07:32:48.936Z,97.85
2019-03-21T07:34:48.954Z,97.75
2019-03-21T07:36:03.640Z,97.75
2019-03-21T07:36:48.994Z,97.75
2019-03-21T07:37:49.031Z,97.66
2019-03-21T07:38:49.044Z,97.85
2019-03-21T07:39:49.069Z,97.66
2019-03-21T07:40:49.069Z,97.37
2019-03-21T07:41:49.088Z,97.17
2019-03-21T07:42:49.121Z,97.94
2019-03-21T07:43:49.147Z,97.66
2019-03-21T07:44:49.162Z,97.75
2019-03-21T07:45:49.165Z,97.37
2019-03-21T07:46:49.209Z,97.27
2019-03-21T07:47:49.219Z,96.98
2019-03-21T07:48:49.223Z,97.17
2019-03-21T07:49:49.262Z,97.46
2019-03-21T07:50:49.259Z,96.89
2019-03-21T07:52:03.947Z,97.27
2019-03-21T07:52:49.299Z,97.27
2019-03-21T07:53:49.335Z,97.51
2019-03-21T07:54:49.353Z,97.42
2019-03-21T07:55:49.356Z,97.03
2019-03-21T07:56:49.392Z,97.08
2019-03-21T07:57:49.394Z,96.84
2019-03-21T07:58:49.430Z,97.32
2019-03-21T07:59:49.439Z,96.46
2019-03-21T08:00:49.470Z,97.03
2019-03-21T08:01:49.517Z,97.32
2019-03-21T08:02:49.502Z,97.13
2019-03-21T08:03:49.584Z,96.75
2019-03-21T08:04:49.548Z,96.32
2019-03-21T08:05:49.547Z,97.27
2019-03-21T08:07:04.243Z,97.46
2019-03-21T08:07:49.588Z,97.56
2019-03-21T08:08:49.371Z,97.32
2019-03-21T08:09:50.800Z,97.32
2019-03-21T08:10:49.661Z,97.75
2019-03-21T08:11:49.677Z,97.89
2019-03-21T08:12:49.446Z,97.8
2019-03-21T08:13:49.705Z,97.75
2019-03-21T08:14:49.725Z,98.18
2019-03-21T08:15:49.758Z,98.18
2019-03-21T08:16:49.775Z,98.08
2019-03-21T08:17:49.797Z,98.18
2019-03-21T08:18:49.801Z,97.99
2019-03-21T08:19:49.832Z,98.27
2019-03-21T08:21:00.086Z,98.03
2019-03-21T08:21:49.859Z,98.27
2019-03-21T08:22:49.888Z,97.61
2019-03-21T08:23:49.912Z,97.22
2019-03-21T08:24:49.931Z,97.89
2019-03-21T08:25:49.934Z,97.71
2019-03-21T08:26:49.963Z,97.32
2019-03-21T08:27:51.764Z,97.51
2019-03-21T08:28:50.002Z,97.61
2019-03-21T08:29:50.029Z,97.61
2019-03-21T08:30:50.031Z,97.8
2019-03-21T08:31:50.068Z,97.71
2019-03-21T08:32:50.067Z,98.08
2019-03-21T08:33:50.106Z,97.8
2019-03-21T08:34:50.125Z,97.71
2019-03-21T08:35:50.129Z,98.08
2019-03-21T08:36:50.156Z,97.99
2019-03-21T08:37:50.165Z,97.99
2019-03-21T08:39:04.850Z,97.99
2019-03-21T08:39:50.202Z,97.61
2019-03-21T08:40:50.238Z,97.61
2019-03-21T08:41:50.264Z,98.08
2019-03-21T08:42:50.277Z,98.27
2019-03-21T08:43:50.281Z,97.51
2019-03-21T08:44:50.303Z,98.18
2019-03-21T08:45:50.333Z,98.18
2019-03-21T08:46:50.359Z,98.08
2019-03-21T08:47:50.373Z,98.18
2019-03-21T08:48:50.381Z,98.47
2019-03-21T08:49:50.510Z,97.89
2019-03-21T08:51:50.465Z,97.99
2019-03-21T08:53:50.500Z,97.89
2019-03-21T08:55:05.155Z,97.89
2019-03-21T08:55:50.530Z,97.61
2019-03-21T08:56:50.532Z,97.13
2019-03-21T08:57:50.567Z,97.32
2019-03-21T08:59:50.597Z,96.84
2019-03-21T09:00:50.614Z,97.22
2019-03-21T09:01:50.629Z,97.13
2019-03-21T09:02:50.675Z,96.94
2019-03-21T09:03:50.664Z,96.75
2019-03-21T09:04:50.701Z,96.37
2019-03-21T09:07:50.756Z,97.22
2019-03-21T09:08:50.768Z,96.84
2019-03-21T09:09:50.906Z,96.75
2019-03-21T09:11:05.465Z,96.75
2019-03-21T09:11:50.839Z,96.42
2019-03-21T09:12:50.861Z,96.7
2019-03-21T09:13:50.862Z,96.32
2019-03-21T09:14:50.890Z,96.7
2019-03-21T09:15:50.899Z,96.13
2019-03-21T09:16:50.938Z,95.17
2019-03-21T09:17:50.938Z,95.65
2019-03-21T09:18:50.974Z,95.56
2019-03-21T09:19:50.989Z,94.98
2019-03-21T09:20:51.020Z,94.98
2019-03-21T09:21:51.015Z,94.89
2019-03-21T09:22:51.055Z,95.08
2019-03-21T09:24:51.094Z,94.27
2019-03-21T09:25:53.686Z,95.22
2019-03-21T09:27:05.783Z,94.93
2019-03-21T09:28:01.835Z,94.51
2019-03-21T09:28:51.180Z,94.6
2019-03-21T09:29:55.887Z,94.89
2019-03-21T09:30:53.114Z,95.17
2019-03-21T09:31:51.213Z,95.08
2019-03-21T09:32:51.235Z,94.89
2019-03-21T09:33:51.266Z,95.36
2019-03-21T09:34:51.310Z,95.08
2019-03-21T09:35:51.057Z,95.27
2019-03-21T09:36:51.330Z,95.46
2019-03-21T09:37:51.336Z,95.56
2019-03-21T09:38:51.383Z,94.89
2019-03-21T09:40:51.397Z,94.46
2019-03-21T09:42:06.077Z,94.17
2019-03-21T09:42:51.432Z,94.46
2019-03-21T09:43:51.474Z,94.65
2019-03-21T09:44:51.484Z,93.79
2019-03-21T09:45:51.511Z,93.6
2019-03-21T09:46:53.596Z,93.79
2019-03-21T09:47:51.551Z,93.88
2019-03-21T09:48:51.564Z,93.98
2019-03-21T09:49:51.603Z,93.6
2019-03-21T09:50:51.598Z,93.5
2019-03-21T09:52:51.631Z,93.02
2019-03-21T09:53:51.670Z,93.21
2019-03-21T09:54:51.677Z,93.41
2019-03-21T09:55:51.708Z,93.6
2019-03-21T09:56:51.726Z,93.21
2019-03-21T09:57:51.750Z,93.5
2019-03-21T09:58:51.754Z,93.41
2019-03-21T10:00:51.814Z,92.74
2019-03-21T10:01:54.284Z,92.16
2019-03-21T10:02:51.847Z,92.74
2019-03-21T10:03:51.851Z,92.93
2019-03-21T10:04:51.889Z,92.45
2019-03-21T10:05:51.889Z,91.78
2019-03-21T10:06:51.916Z,92.45
2019-03-21T10:07:51.948Z,93.02
2019-03-21T10:08:51.958Z,92.74
2019-03-21T10:09:51.990Z,92.45
2019-03-21T10:10:51.990Z,91.78
2019-03-21T10:11:52.032Z,91.11
2019-03-21T10:12:52.032Z,91.3
2019-03-21T10:14:06.714Z,91.5
2019-03-21T10:14:52.092Z,90.73
2019-03-21T10:15:51.852Z,91.3
2019-03-21T10:16:52.116Z,91.4
2019-03-21T10:17:52.149Z,91.88
2019-03-21T10:18:52.152Z,91.21
2019-03-21T10:19:52.191Z,91.59
2019-03-21T10:20:52.227Z,91.5
2019-03-21T10:22:52.248Z,91.69
2019-03-21T10:23:52.263Z,91.11
2019-03-21T10:24:52.295Z,90.83
2019-03-21T10:25:52.293Z,90.64
2019-03-21T10:26:52.330Z,91.06
2019-03-21T10:27:52.350Z,90.59
2019-03-21T10:30:07.041Z,90.59
2019-03-21T10:30:52.397Z,91.06
2019-03-21T10:31:52.437Z,91.54
2019-03-21T10:32:52.433Z,91.25
2019-03-21T10:33:52.473Z,91.16
2019-03-21T10:34:52.485Z,91.06
2019-03-21T10:35:52.499Z,90.39
2019-03-21T10:36:52.528Z,89.92
2019-03-21T10:38:52.587Z,90.3
2019-03-21T10:39:52.575Z,90.11
2019-03-21T10:40:52.613Z,90.88
2019-03-21T10:41:52.633Z,91.25
2019-03-21T10:43:52.672Z,91.45
2019-03-21T10:44:52.693Z,91.25
2019-03-21T10:46:07.360Z,90.3
2019-03-21T10:46:52.744Z,90.68
2019-03-21T10:47:52.741Z,90.88
2019-03-21T10:48:52.759Z,91.4
2019-03-21T10:49:52.795Z,91.5
2019-03-21T10:50:52.815Z,91.11
2019-03-21T10:51:57.538Z,91.74
2019-03-21T10:52:52.844Z,91.45
2019-03-21T10:54:52.879Z,90.53
2019-03-21T10:55:52.907Z,89.77
2019-03-21T10:56:52.934Z,90.06
2019-03-21T10:57:52.957Z,89.82
2019-03-21T10:58:52.980Z,89.63
2019-03-21T10:59:52.986Z,89.92
2019-03-21T11:00:53.017Z,89.82
2019-03-21T11:02:07.786Z,90.01
2019-03-21T11:02:53.066Z,89.96
2019-03-21T11:03:53.065Z,89.34
2019-03-21T11:04:53.101Z,90.3
2019-03-21T11:05:53.118Z,90.3
2019-03-21T11:06:53.145Z,90.11
2019-03-21T11:07:53.150Z,90.39
2019-03-21T11:08:53.180Z,90.68
2019-03-21T11:09:53.213Z,90.68
2019-03-21T11:10:53.212Z,90.68
2019-03-21T11:11:53.234Z,90.59
2019-03-21T11:12:53.272Z,89.92
2019-03-21T11:13:53.276Z,90.68
2019-03-21T11:14:53.306Z,90.59
2019-03-21T11:15:53.370Z,90.11
2019-03-21T11:17:07.999Z,89.92
2019-03-21T11:17:53.379Z,90.39
2019-03-21T11:18:53.372Z,90.3
2019-03-21T11:19:53.435Z,90.49
2019-03-21T11:20:53.428Z,90.68
2019-03-21T11:22:55.644Z,89.82
2019-03-21T11:23:53.490Z,90.01
2019-03-21T11:24:53.500Z,90.49
2019-03-21T11:25:53.532Z,90.68
2019-03-21T11:26:53.534Z,89.73
2019-03-21T11:28:53.594Z,90.11
2019-03-21T11:29:53.596Z,90.49
2019-03-21T11:31:53.641Z,90.11
2019-03-21T11:32:53.662Z,89.67
2019-03-21T11:33:53.690Z,89.87
2019-03-21T11:34:56.253Z,89.39
2019-03-21T11:35:53.745Z,89.48
2019-03-21T11:36:53.741Z,89.29
2019-03-21T11:37:53.777Z,89.96
2019-03-21T11:38:53.800Z,89.01
2019-03-21T11:39:53.802Z,88.53
2019-03-21T11:41:53.885Z,88.43
2019-03-21T11:42:53.869Z,89.2
2019-03-21T11:43:53.911Z,88.05
2019-03-21T11:44:53.973Z,88.81
2019-03-21T11:45:55.251Z,89.2
2019-03-21T11:46:53.965Z,88.81
2019-03-21T11:47:54.053Z,88.91
2019-03-21T11:49:08.652Z,88.72
2019-03-21T11:49:54.027Z,88.05
2019-03-21T11:50:54.048Z,88.15
2019-03-21T11:51:54.086Z,89.01
2019-03-21T11:52:54.086Z,88.91
2019-03-21T11:54:54.134Z,88.96
2019-03-21T11:55:54.139Z,88.87
2019-03-21T11:56:54.207Z,88.96
2019-03-21T11:57:54.181Z,88.87
2019-03-21T11:58:54.209Z,90.11
2019-03-21T11:59:54.938Z,89.82
2019-03-21T12:00:54.259Z,89.73
2019-03-21T12:01:54.255Z,89.63
2019-03-21T12:02:54.288Z,88.91
2019-03-21T12:03:54.311Z,89.15
2019-03-21T12:05:08.986Z,89.15
2019-03-21T12:05:54.390Z,88.96
2019-03-21T12:06:54.376Z,90.01
2019-03-21T12:08:54.419Z,90.2
2019-03-21T12:09:54.449Z,89.1
2019-03-21T12:10:54.449Z,89.1
2019-03-21T12:11:54.462Z,88.81
2019-03-21T12:12:54.484Z,88.62
2019-03-21T12:13:54.523Z,87.95
2019-03-21T12:15:54.562Z,87.86
2019-03-21T12:16:54.582Z,87.76
2019-03-21T12:17:54.600Z,87.66
2019-03-21T12:18:54.609Z,87.95
2019-03-21T12:19:54.630Z,88.43
2019-03-21T12:21:54.679Z,87.57
2019-03-21T12:22:54.709Z,87.76
2019-03-21T12:23:54.723Z,87.57
2019-03-21T12:24:54.786Z,87
2019-03-21T12:25:54.752Z,87.95
2019-03-21T12:26:54.774Z,86.8
2019-03-21T12:27:54.810Z,87.19
2019-03-21T12:28:54.820Z,87.19
2019-03-21T12:29:54.858Z,86.8
2019-03-21T12:30:54.857Z,87.66
2019-03-21T12:31:54.895Z,87.76
2019-03-21T12:32:54.897Z,87.19
2019-03-21T12:34:54.946Z,88.05
2019-03-21T12:35:54.966Z,87.86
2019-03-21T12:37:09.646Z,88.81
2019-03-21T12:38:55.029Z,88.62
2019-03-21T12:39:55.060Z,87.95
2019-03-21T12:40:55.078Z,87
2019-03-21T12:41:55.102Z,87.09
2019-03-21T12:42:55.108Z,87.48
2019-03-21T12:43:55.126Z,87.29
2019-03-21T12:44:55.165Z,87.38
2019-03-21T12:45:55.188Z,87.29
2019-03-21T12:47:55.209Z,87.95
2019-03-21T12:48:55.248Z,87.86
2019-03-21T12:49:55.300Z,87.95
2019-03-21T12:50:55.285Z,87.95
2019-03-21T12:52:09.962Z,87.38
2019-03-21T12:52:55.321Z,87.38
2019-03-21T12:53:55.353Z,87.66
2019-03-21T12:54:55.363Z,87.66
2019-03-21T12:55:55.398Z,87.95
2019-03-21T12:56:55.589Z,87.29
2019-03-21T12:57:55.429Z,87.76
2019-03-21T12:58:55.440Z,88.53
2019-03-21T12:59:55.478Z,88.05
2019-03-21T13:00:55.495Z,87
2019-03-21T13:01:55.523Z,87.19
2019-03-21T13:02:55.523Z,87.95
2019-03-21T13:03:55.564Z,88.05
2019-03-21T13:04:55.577Z,87.76
2019-03-21T13:05:55.608Z,87.95
2019-03-21T13:06:55.643Z,87.66
2019-03-21T13:07:55.378Z,88.05
2019-03-21T13:08:55.668Z,88.72
2019-03-21T13:09:55.673Z,88.81
2019-03-21T13:10:55.707Z,88.91
2019-03-21T13:11:55.718Z,88.72
2019-03-21T13:12:55.751Z,88.43
2019-03-21T13:13:55.755Z,89.2
2019-03-21T13:14:55.787Z,89.2
2019-03-21T13:15:55.803Z,88.15
2019-03-21T13:16:55.814Z,89.1
2019-03-21T13:17:55.836Z,89.01
2019-03-21T13:18:55.875Z,89.2
2019-03-21T13:19:55.890Z,89.01
2019-03-21T13:20:55.914Z,89.2
2019-03-21T13:21:55.922Z,88.72
2019-03-21T13:22:56.452Z,88.91
2019-03-21T13:24:10.675Z,88.91
2019-03-21T13:24:55.981Z,89.2
2019-03-21T13:25:56.020Z,88.91
2019-03-21T13:26:56.043Z,88.53
2019-03-21T13:27:56.049Z,88.34
2019-03-21T13:28:56.089Z,88.24
2019-03-21T13:29:56.090Z,88.15
2019-03-21T13:30:56.122Z,88.24
2019-03-21T13:31:56.226Z,88.34
2019-03-21T13:32:56.163Z,88.24
2019-03-21T13:33:56.167Z,89.01
2019-03-21T13:34:56.223Z,89.06
2019-03-21T13:35:56.210Z,88.91
2019-03-21T13:36:56.249Z,89.2
2019-03-21T13:37:56.533Z,88.05